createdAt,value
2022-08-24T00:01:22.399Z,22.10
2022-08-24T00:03:49.751Z,22.30
2022-08-24T00:06:23.580Z,22.16
2022-08-24T00:08:52.851Z,21.99
2022-08-24T00:11:20.484Z,22.01
2022-08-24T00:13:47.423Z,21.73
2022-08-24T00:16:15.964Z,21.74
2022-08-24T00:18:44.256Z,21.63
2022-08-24T00:21:10.991Z,21.87
2022-08-24T00:23:37.634Z,22.24
2022-08-24T00:26:05.353Z,21.76
2022-08-24T00:28:32.126Z,21.68
2022-08-24T00:30:59.080Z,21.87
2022-08-24T00:33:26.522Z,22.17
2022-08-24T00:35:53.201Z,22.08
2022-08-24T00:38:20.353Z,21.96
2022-08-24T00:40:49.214Z,22.19
2022-08-24T00:43:20.671Z,22.37
2022-08-24T00:46:21.979Z,22.24
2022-08-24T00:48:55.213Z,22.40
2022-08-24T00:51:33.445Z,22.25
2022-08-24T00:54:08.799Z,21.99
2022-08-24T00:56:49.417Z,22.03
2022-08-24T00:59:22.444Z,22.14
2022-08-24T01:01:51.387Z,22.31
2022-08-24T01:04:29.881Z,22.17
2022-08-24T01:06:57.366Z,22.07
2022-08-24T01:09:24.152Z,22.13
2022-08-24T01:11:51.013Z,21.56
2022-08-24T01:14:20.479Z,21.89
2022-08-24T01:17:05.862Z,21.38
2022-08-24T01:19:39.543Z,21.31
2022-08-24T01:22:21.014Z,21.71
2022-08-24T01:24:47.870Z,22.04
2022-08-24T01:27:15.595Z,22.14
2022-08-24T01:29:45.737Z,22.14
2022-08-24T01:32:14.488Z,22.03
2022-08-24T01:34:41.255Z,22.02
2022-08-24T01:37:10.867Z,21.99
2022-08-24T01:39:43.855Z,21.71
2022-08-24T01:42:11.541Z,21.83
2022-08-24T01:44:40.203Z,21.86
2022-08-24T01:47:08.717Z,21.77
2022-08-24T01:49:40.079Z,21.69
2022-08-24T01:52:08.202Z,21.88
2022-08-24T01:54:35.376Z,22.05
2022-08-24T01:57:02.280Z,21.99
2022-08-24T01:59:29.654Z,21.85
2022-08-24T02:02:19.887Z,21.63
2022-08-24T02:04:46.581Z,21.81
2022-08-24T02:07:14.080Z,21.88
2022-08-24T02:09:40.882Z,21.86
2022-08-24T02:12:08.200Z,21.87
2022-08-24T02:14:36.572Z,22.03
2022-08-24T02:17:05.829Z,21.93
2022-08-24T02:19:32.678Z,22.00
2022-08-24T02:22:00.529Z,20.99
2022-08-24T02:24:30.660Z,21.27
2022-08-24T02:26:58.235Z,21.77
2022-08-24T02:29:25.396Z,21.87
2022-08-24T02:31:52.296Z,21.90
2022-08-24T02:34:19.065Z,22.05
2022-08-24T02:36:45.953Z,22.14
2022-08-24T02:39:13.091Z,22.15
2022-08-24T02:41:39.882Z,21.93
2022-08-24T02:44:07.187Z,21.27
2022-08-24T02:46:33.917Z,21.65
2022-08-24T02:49:10.564Z,21.62
2022-08-24T02:51:44.078Z,21.72
2022-08-24T02:54:13.569Z,21.75
2022-08-24T02:56:40.277Z,21.66
2022-08-24T02:59:06.974Z,21.62
2022-08-24T03:01:33.860Z,21.62
2022-08-24T03:04:00.564Z,21.79
2022-08-24T03:06:27.248Z,22.04
2022-08-24T03:08:56.421Z,22.07
2022-08-24T03:11:28.008Z,22.04
2022-08-24T03:13:56.458Z,21.88
2022-08-24T03:16:23.155Z,21.84
2022-08-24T03:18:49.903Z,22.00
2022-08-24T03:21:18.743Z,21.82
2022-08-24T03:23:45.383Z,21.87
2022-08-24T03:26:13.067Z,21.98
2022-08-24T03:28:40.140Z,22.14
2022-08-24T03:31:07.479Z,22.30
2022-08-24T03:33:34.299Z,22.19
2022-08-24T03:36:00.985Z,22.18
2022-08-24T03:38:28.370Z,22.20
2022-08-24T03:40:55.041Z,22.26
2022-08-24T03:43:40.261Z,22.28
2022-08-24T03:46:09.152Z,22.28
2022-08-24T03:48:36.765Z,22.36
2022-08-24T03:51:03.755Z,22.09
2022-08-24T03:53:30.455Z,22.05
2022-08-24T03:55:57.078Z,22.13
2022-08-24T03:58:23.971Z,21.96
2022-08-24T04:00:50.895Z,21.98
2022-08-24T04:03:17.682Z,21.98
2022-08-24T04:05:44.422Z,22.01
2022-08-24T04:08:11.490Z,22.04
2022-08-24T04:10:43.575Z,22.15
2022-08-24T04:13:10.242Z,22.01
2022-08-24T04:15:40.911Z,21.97
2022-08-24T04:18:08.479Z,22.00
2022-08-24T04:20:41.152Z,21.85
2022-08-24T04:23:09.306Z,21.87
2022-08-24T04:25:41.742Z,21.90
2022-08-24T04:28:08.541Z,21.94
2022-08-24T04:30:35.185Z,22.04
2022-08-24T04:33:02.332Z,21.92
2022-08-24T04:35:29.119Z,21.98
2022-08-24T04:37:55.791Z,21.68
2022-08-24T04:40:22.632Z,21.94
2022-08-24T04:42:50.651Z,22.05
2022-08-24T04:45:17.322Z,22.03
2022-08-24T04:47:45.585Z,21.74
2022-08-24T04:50:12.947Z,21.92
2022-08-24T04:52:39.703Z,22.23
2022-08-24T04:55:07.633Z,22.30
2022-08-24T04:57:35.068Z,22.48
2022-08-24T05:00:03.279Z,22.21
2022-08-24T05:02:30.015Z,22.15
2022-08-24T05:04:57.932Z,22.51
2022-08-24T05:07:25.876Z,22.66
2022-08-24T05:09:52.845Z,22.65
2022-08-24T05:12:20.911Z,22.84
2022-08-24T05:14:47.609Z,22.68
2022-08-24T05:17:14.299Z,22.35
2022-08-24T05:19:41.038Z,22.49
2022-08-24T05:22:08.119Z,22.76
2022-08-24T05:24:34.872Z,23.07
2022-08-24T05:27:01.559Z,23.14
2022-08-24T05:29:28.303Z,22.90
2022-08-24T05:31:55.038Z,22.84
2022-08-24T05:34:23.863Z,23.04
2022-08-24T05:36:50.529Z,23.20
2022-08-24T05:39:17.207Z,23.37
2022-08-24T05:41:45.341Z,22.57
2022-08-24T05:44:14.182Z,22.86
2022-08-24T05:46:41.250Z,22.95
2022-08-24T05:49:08.306Z,23.39
2022-08-24T05:51:35.698Z,23.42
2022-08-24T05:54:05.037Z,23.21
2022-08-24T05:56:32.255Z,23.24
2022-08-24T05:58:59.352Z,23.40
2022-08-24T06:01:27.266Z,23.47
2022-08-24T06:03:56.462Z,23.46
2022-08-24T06:06:24.320Z,22.77
2022-08-24T06:08:53.529Z,23.05
2022-08-24T06:11:24.751Z,23.15
2022-08-24T06:14:07.368Z,23.27
2022-08-24T06:16:41.318Z,23.14
2022-08-24T06:19:09.921Z,23.48
2022-08-24T06:21:37.988Z,23.41
2022-08-24T06:24:06.569Z,22.63
2022-08-24T06:26:52.561Z,22.69
2022-08-24T06:29:20.320Z,23.40
2022-08-24T06:31:54.218Z,23.56
2022-08-24T06:34:23.313Z,23.13
2022-08-24T06:36:50.463Z,23.06
2022-08-24T06:39:17.261Z,23.02
2022-08-24T06:41:44.133Z,23.47
2022-08-24T06:44:11.121Z,23.62
2022-08-24T06:46:37.943Z,24.10
2022-08-24T06:49:05.532Z,23.83
2022-08-24T06:51:32.627Z,23.88
2022-08-24T06:53:59.529Z,23.89
2022-08-24T06:56:26.503Z,23.97
2022-08-24T06:58:53.264Z,23.99
2022-08-24T07:01:27.559Z,23.96
2022-08-24T07:03:54.880Z,23.69
2022-08-24T07:06:23.596Z,24.22
2022-08-24T07:08:51.135Z,23.98
2022-08-24T07:11:19.095Z,24.25
2022-08-24T07:13:47.526Z,24.41
2022-08-24T07:16:22.172Z,23.42
2022-08-24T07:18:50.229Z,24.27
2022-08-24T07:21:19.737Z,24.53
2022-08-24T07:23:48.319Z,24.23
2022-08-24T07:26:21.472Z,24.30
2022-08-24T07:29:01.403Z,23.76
2022-08-24T07:31:32.025Z,24.04
2022-08-24T07:34:01.450Z,24.05
2022-08-24T07:36:28.545Z,24.25
2022-08-24T07:38:56.218Z,23.90
2022-08-24T07:44:13.044Z,23.87
2022-08-24T07:46:41.772Z,24.66
2022-08-24T07:49:31.600Z,24.42
2022-08-24T07:51:56.109Z,24.22
2022-08-24T07:54:22.917Z,24.53
2022-08-24T07:56:50.338Z,24.44
2022-08-24T07:59:18.181Z,24.26
2022-08-24T08:01:45.067Z,24.11
2022-08-24T08:04:12.148Z,23.66
2022-08-24T08:06:38.879Z,24.02
2022-08-24T08:09:06.434Z,24.41
2022-08-24T08:11:33.210Z,24.73
2022-08-24T08:14:00.079Z,24.52
2022-08-24T08:16:27.866Z,24.24
2022-08-24T08:19:11.068Z,24.56
2022-08-24T08:22:16.950Z,24.93
2022-08-24T08:24:43.951Z,25.11
2022-08-24T08:27:12.550Z,25.33
2022-08-24T08:29:40.682Z,25.40
2022-08-24T08:32:09.546Z,25.66
2022-08-24T08:34:36.818Z,25.43
2022-08-24T08:37:03.961Z,25.40
2022-08-24T08:39:31.394Z,25.57
2022-08-24T08:42:35.454Z,25.56
2022-08-24T08:45:28.454Z,25.65
2022-08-24T08:48:22.947Z,25.75
2022-08-24T08:50:55.959Z,25.76
2022-08-24T08:54:10.725Z,25.44
2022-08-24T08:57:09.976Z,25.22
2022-08-24T09:00:09.086Z,25.17
2022-08-24T09:03:17.433Z,25.55
2022-08-24T09:05:57.548Z,25.93
2022-08-24T09:08:52.105Z,25.83
2022-08-24T09:11:21.826Z,25.67
2022-08-24T09:13:58.909Z,25.33
2022-08-24T09:16:51.158Z,25.60
2022-08-24T09:19:40.016Z,25.88
2022-08-24T09:22:16.960Z,26.37
2022-08-24T09:24:52.856Z,25.83
2022-08-24T09:27:53.340Z,25.88
2022-08-24T09:30:26.008Z,26.03
2022-08-24T09:33:27.175Z,25.25
2022-08-24T09:36:00.122Z,25.71
2022-08-24T09:38:41.695Z,25.68
2022-08-24T09:41:14.147Z,26.36
2022-08-24T09:44:03.512Z,26.48
2022-08-24T09:46:33.231Z,26.86
2022-08-24T09:49:13.629Z,26.91
2022-08-24T09:51:56.569Z,26.09
2022-08-24T09:54:48.186Z,26.61
2022-08-24T09:57:20.017Z,26.36
2022-08-24T10:00:24.267Z,25.98
2022-08-24T10:03:11.938Z,26.25
2022-08-24T10:06:00.022Z,26.21
2022-08-24T10:08:53.447Z,26.80
2022-08-24T10:11:47.764Z,26.15
2022-08-24T10:14:42.407Z,25.79
2022-08-24T10:17:30.827Z,25.87
2022-08-24T10:20:19.246Z,26.49
2022-08-24T10:23:22.621Z,26.23
2022-08-24T10:25:59.994Z,26.17
2022-08-24T10:28:57.422Z,26.21
2022-08-24T10:31:26.720Z,26.66
2022-08-24T10:34:30.282Z,25.87
2022-08-24T10:37:25.545Z,26.29
2022-08-24T10:40:06.388Z,26.04
2022-08-24T10:43:00.585Z,25.90
2022-08-24T10:45:27.218Z,26.98
2022-08-24T10:48:15.438Z,27.15
2022-08-24T10:50:50.862Z,27.64
2022-08-24T10:53:32.977Z,27.70
2022-08-24T10:56:14.871Z,27.20
2022-08-24T10:58:47.443Z,27.00
2022-08-24T11:01:23.354Z,27.20
2022-08-24T11:03:50.404Z,26.68
2022-08-24T11:06:19.352Z,27.35
2022-08-24T11:09:17.236Z,27.58
2022-08-24T11:11:48.846Z,27.58
2022-08-24T11:14:15.475Z,27.51
2022-08-24T11:16:45.259Z,27.66
2022-08-24T11:19:31.343Z,27.30
2022-08-24T11:22:02.091Z,28.12
2022-08-24T11:24:46.032Z,28.39
2022-08-24T11:27:15.377Z,28.47
2022-08-24T11:29:54.837Z,28.12
2022-08-24T11:32:39.747Z,28.59
2022-08-24T11:35:33.634Z,28.43
2022-08-24T11:38:07.358Z,28.18
2022-08-24T11:40:43.607Z,27.50
2022-08-24T11:43:22.610Z,27.79
2022-08-24T11:46:11.571Z,28.20
2022-08-24T11:48:53.376Z,28.35
2022-08-24T11:51:21.281Z,27.80
2022-08-24T11:53:47.890Z,28.12
2022-08-24T11:56:33.047Z,27.63
2022-08-24T11:59:26.302Z,28.42
2022-08-24T12:02:04.272Z,28.38
2022-08-24T12:04:49.235Z,27.62
2022-08-24T12:07:28.121Z,27.48
2022-08-24T12:09:54.702Z,27.21
2022-08-24T12:12:40.931Z,27.29
2022-08-24T12:15:17.074Z,26.68
2022-08-24T12:17:49.422Z,26.63
2022-08-24T12:20:32.121Z,26.75
2022-08-24T12:23:08.753Z,26.93
2022-08-24T12:25:54.207Z,27.27
2022-08-24T12:28:29.123Z,27.56
2022-08-24T12:31:02.095Z,27.16
2022-08-24T12:33:37.546Z,27.41
2022-08-24T12:36:13.574Z,27.55
2022-08-24T12:38:48.050Z,27.69
2022-08-24T12:41:27.551Z,27.35
2022-08-24T12:44:02.362Z,27.06
2022-08-24T12:46:30.392Z,26.74
2022-08-24T12:49:12.466Z,27.04
2022-08-24T12:52:05.136Z,26.74
2022-08-24T12:54:53.319Z,26.49
2022-08-24T12:57:39.619Z,26.66
2022-08-24T13:00:24.543Z,26.67
2022-08-24T13:03:04.461Z,26.95
2022-08-24T13:05:50.799Z,26.96
2022-08-24T13:08:32.083Z,26.77
2022-08-24T13:11:27.539Z,26.62
2022-08-24T13:13:54.102Z,26.74
2022-08-24T13:17:06.698Z,27.24
2022-08-24T13:19:38.668Z,27.55
2022-08-24T13:22:10.860Z,26.85
2022-08-24T13:24:42.076Z,26.89
2022-08-24T13:27:11.581Z,26.66
2022-08-24T13:30:13.546Z,26.55
2022-08-24T13:32:45.489Z,26.32
2022-08-24T13:35:55.315Z,26.12
2022-08-24T13:38:24.582Z,26.36
2022-08-24T13:40:56.931Z,26.41
2022-08-24T13:43:26.555Z,26.11
2022-08-24T13:46:00.108Z,26.37
2022-08-24T13:48:49.429Z,26.20
2022-08-24T13:51:24.983Z,26.31
2022-08-24T13:54:20.389Z,26.70
2022-08-24T13:57:07.124Z,26.62
2022-08-24T13:59:52.173Z,26.40
2022-08-24T14:02:39.269Z,26.49
2022-08-24T14:05:44.036Z,26.84
2022-08-24T14:08:28.537Z,26.59
2022-08-24T14:11:08.977Z,26.76
2022-08-24T14:14:05.341Z,26.52
2022-08-24T14:17:02.630Z,26.44
2022-08-24T14:19:43.155Z,26.79
2022-08-24T14:22:09.770Z,27.02
2022-08-24T14:24:48.581Z,26.37
2022-08-24T14:27:35.005Z,26.74
2022-08-24T14:30:23.518Z,26.72
2022-08-24T14:33:03.465Z,27.06
2022-08-24T14:35:53.706Z,27.01
2022-08-24T14:38:20.313Z,26.78
2022-08-24T14:40:53.015Z,26.60
2022-08-24T14:43:30.843Z,26.99
2022-08-24T14:46:19.278Z,26.73
2022-08-24T14:48:48.781Z,26.87
2022-08-24T14:51:44.195Z,26.48
2022-08-24T14:54:47.840Z,26.74
2022-08-24T14:57:37.888Z,26.63
2022-08-24T15:00:15.924Z,26.31
2022-08-24T15:02:51.644Z,26.35
2022-08-24T15:05:36.175Z,26.14
2022-08-24T15:08:13.273Z,26.04
2022-08-24T15:11:05.676Z,26.32
2022-08-24T15:13:42.095Z,26.06
2022-08-24T15:16:27.303Z,26.49
2022-08-24T15:19:03.045Z,26.08
2022-08-24T15:21:47.764Z,25.94
2022-08-24T15:24:29.238Z,25.48
2022-08-24T15:27:33.605Z,25.33
2022-08-24T15:30:04.651Z,25.50
2022-08-24T15:32:44.554Z,25.51
2022-08-24T15:35:30.453Z,25.39
2022-08-24T15:37:58.094Z,25.93
2022-08-24T15:40:31.707Z,25.40
2022-08-24T15:43:04.082Z,25.67
2022-08-24T15:45:32.950Z,25.96
2022-08-24T15:48:02.378Z,26.19
2022-08-24T15:50:41.637Z,25.99
2022-08-24T15:53:14.167Z,25.78
2022-08-24T15:55:43.723Z,25.91
2022-08-24T15:58:37.646Z,26.30
2022-08-24T16:01:28.736Z,26.35
2022-08-24T16:04:01.956Z,26.49
2022-08-24T16:06:31.853Z,26.21
2022-08-24T16:09:18.711Z,26.05
2022-08-24T16:11:48.172Z,25.41
2022-08-24T16:14:25.924Z,26.27
2022-08-24T16:16:54.472Z,26.25
2022-08-24T16:19:25.911Z,25.93
2022-08-24T16:22:01.135Z,26.01
2022-08-24T16:24:33.148Z,25.68
2022-08-24T16:27:14.727Z,25.83
2022-08-24T16:29:45.197Z,26.04
2022-08-24T16:32:33.649Z,26.29
2022-08-24T16:35:11.699Z,26.46
2022-08-24T16:37:39.367Z,26.12
2022-08-24T16:40:08.522Z,25.89
2022-08-24T16:42:36.544Z,26.14
2022-08-24T16:45:06.110Z,26.15
2022-08-24T16:47:32.793Z,26.22
2022-08-24T16:49:59.408Z,26.29
2022-08-24T16:52:26.061Z,26.14
2022-08-24T16:54:52.682Z,25.96
2022-08-24T16:57:22.965Z,25.91
2022-08-24T16:59:52.152Z,25.54
2022-08-24T17:02:20.232Z,25.57
2022-08-24T17:04:46.967Z,25.87
2022-08-24T17:07:21.531Z,25.38
2022-08-24T17:09:48.865Z,25.79
2022-08-24T17:12:15.643Z,25.46
2022-08-24T17:14:42.831Z,25.59
2022-08-24T17:17:13.645Z,25.37
2022-08-24T17:19:41.075Z,25.49
2022-08-24T17:22:14.294Z,25.38
2022-08-24T17:24:43.083Z,25.52
2022-08-24T17:27:09.767Z,25.32
2022-08-24T17:29:36.627Z,25.66
2022-08-24T17:32:03.918Z,25.52
2022-08-24T17:34:32.190Z,25.86
2022-08-24T17:37:00.112Z,25.83
2022-08-24T17:39:27.472Z,25.81
2022-08-24T17:41:56.368Z,25.90
2022-08-24T17:44:26.723Z,26.08
2022-08-24T17:46:57.686Z,26.03
2022-08-24T17:49:25.095Z,26.00
2022-08-24T17:51:52.146Z,25.99
2022-08-24T17:54:19.391Z,25.89
2022-08-24T17:56:48.746Z,25.73
2022-08-24T17:59:23.575Z,25.66
2022-08-24T18:01:52.679Z,25.66
2022-08-24T18:04:21.858Z,25.53
2022-08-24T18:06:49.596Z,25.60
2022-08-24T18:09:21.527Z,25.64
2022-08-24T18:11:48.158Z,25.77
2022-08-24T18:14:15.089Z,25.79
2022-08-24T18:16:41.835Z,25.74
2022-08-24T18:19:11.865Z,25.84
2022-08-24T18:21:38.693Z,25.87
2022-08-24T18:24:05.771Z,25.76
2022-08-24T18:26:33.769Z,25.44
2022-08-24T18:29:09.042Z,25.64
2022-08-24T18:31:36.012Z,25.73
2022-08-24T18:34:02.707Z,25.76
2022-08-24T18:36:29.420Z,25.55
2022-08-24T18:38:56.044Z,25.42
2022-08-24T18:41:35.396Z,25.52
2022-08-24T18:44:03.704Z,25.46
2022-08-24T18:46:31.289Z,25.55
2022-08-24T18:48:59.041Z,25.32
2022-08-24T18:51:28.137Z,25.52
2022-08-24T18:54:05.372Z,25.49
2022-08-24T18:56:32.133Z,25.46
2022-08-24T18:58:58.875Z,25.32
2022-08-24T19:01:27.335Z,25.43
2022-08-24T19:03:55.565Z,25.36
2022-08-24T19:06:24.374Z,25.42
2022-08-24T19:08:51.249Z,25.31
2022-08-24T19:11:23.348Z,25.36
2022-08-24T19:13:50.000Z,25.40
2022-08-24T19:16:17.036Z,25.44
2022-08-24T19:18:45.922Z,25.52
2022-08-24T19:21:12.632Z,25.44
2022-08-24T19:23:40.638Z,25.39
2022-08-24T19:26:07.392Z,25.38
2022-08-24T19:28:34.138Z,25.12
2022-08-24T19:31:03.740Z,25.20
2022-08-24T19:33:41.252Z,24.99
2022-08-24T19:36:08.072Z,25.06
2022-08-24T19:38:34.776Z,25.13
2022-08-24T19:41:03.580Z,25.15
2022-08-24T19:43:58.543Z,25.14
2022-08-24T19:46:25.297Z,25.05
2022-08-24T19:48:52.064Z,25.05
2022-08-24T19:51:18.854Z,24.91
2022-08-24T19:53:45.752Z,24.76
2022-08-24T19:56:12.441Z,24.73
2022-08-24T19:59:01.296Z,24.75
2022-08-24T20:01:34.459Z,24.77
2022-08-24T20:04:03.333Z,24.66
2022-08-24T20:06:33.349Z,24.72
2022-08-24T20:09:02.843Z,24.44
2022-08-24T20:11:29.705Z,24.62
2022-08-24T20:13:56.728Z,24.54
2022-08-24T20:16:26.633Z,24.59
2022-08-24T20:18:53.475Z,24.63
2022-08-24T20:21:20.368Z,24.55
2022-08-24T20:23:47.024Z,24.56
2022-08-24T20:26:14.161Z,24.64
2022-08-24T20:28:48.121Z,24.66
2022-08-24T20:31:15.731Z,24.49
2022-08-24T20:33:42.469Z,24.46
2022-08-24T20:36:36.414Z,24.32
2022-08-24T20:39:07.071Z,24.10
2022-08-24T20:41:33.822Z,24.32
2022-08-24T20:44:01.607Z,24.30
2022-08-24T20:46:29.119Z,24.35
2022-08-24T20:48:57.285Z,24.49
2022-08-24T20:51:26.767Z,24.54
2022-08-24T20:53:54.174Z,24.60
2022-08-24T20:56:31.477Z,24.46
2022-08-24T20:59:01.258Z,24.42
2022-08-24T21:01:27.998Z,24.50
2022-08-24T21:03:54.716Z,24.39
2022-08-24T21:06:21.452Z,24.24
2022-08-24T21:08:50.786Z,24.09
2022-08-24T21:11:18.210Z,24.29
2022-08-24T21:13:44.877Z,24.37
2022-08-24T21:16:14.901Z,24.34
2022-08-24T21:18:46.868Z,24.34
2022-08-24T21:21:13.971Z,24.53
2022-08-24T21:23:40.740Z,24.48
2022-08-24T21:26:10.728Z,24.41
2022-08-24T21:28:41.033Z,24.48
2022-08-24T21:31:07.776Z,24.50
2022-08-24T21:33:53.554Z,24.58
2022-08-24T21:36:23.458Z,24.60
2022-08-24T21:38:52.023Z,24.57
2022-08-24T21:41:20.561Z,24.64
2022-08-24T21:43:47.259Z,24.63
2022-08-24T21:46:14.336Z,24.64
2022-08-24T21:48:41.209Z,24.65
2022-08-24T21:51:08.058Z,24.41
2022-08-24T21:53:34.883Z,24.27
2022-08-24T21:56:02.484Z,24.42
2022-08-24T21:58:29.604Z,24.40
2022-08-24T22:00:59.041Z,24.44
2022-08-24T22:03:26.433Z,24.43
2022-08-24T22:05:58.479Z,24.41
2022-08-24T22:08:26.074Z,24.39
2022-08-24T22:10:55.482Z,24.39
2022-08-24T22:13:22.263Z,24.42
2022-08-24T22:15:50.230Z,24.23
2022-08-24T22:18:16.963Z,24.00
2022-08-24T22:20:43.623Z,23.89
2022-08-24T22:23:10.331Z,24.07
2022-08-24T22:25:37.009Z,24.04
2022-08-24T22:28:03.941Z,24.10
2022-08-24T22:30:33.114Z,24.17
2022-08-24T22:33:00.280Z,24.19
2022-08-24T22:35:27.362Z,24.20
2022-08-24T22:37:54.034Z,23.93
2022-08-24T22:40:20.818Z,23.79
2022-08-24T22:42:47.524Z,23.80
2022-08-24T22:45:14.140Z,23.88
2022-08-24T22:47:40.795Z,24.07
2022-08-24T22:50:08.460Z,24.16
2022-08-24T22:52:35.111Z,23.95
2022-08-24T22:55:01.814Z,23.92
2022-08-24T22:57:30.389Z,23.77
2022-08-24T22:59:57.696Z,23.90
2022-08-24T23:02:24.532Z,24.01
2022-08-24T23:04:52.774Z,23.99
2022-08-24T23:07:20.438Z,23.86
2022-08-24T23:09:48.415Z,23.87
2022-08-24T23:12:19.300Z,23.94
2022-08-24T23:14:46.039Z,23.80
2022-08-24T23:17:12.800Z,23.69
2022-08-24T23:19:58.160Z,23.70
2022-08-24T23:22:25.582Z,23.70
2022-08-24T23:24:52.913Z,23.86
2022-08-24T23:27:20.150Z,23.95
2022-08-24T23:29:47.773Z,23.76
2022-08-24T23:32:18.102Z,23.80
2022-08-24T23:34:46.391Z,23.87
2022-08-24T23:37:13.536Z,23.87
2022-08-24T23:39:40.203Z,23.72
2022-08-24T23:42:07.153Z,23.71
2022-08-24T23:44:34.031Z,23.94
2022-08-24T23:47:01.204Z,24.07
2022-08-24T23:49:29.510Z,24.13
2022-08-24T23:51:56.365Z,24.05
2022-08-24T23:54:23.740Z,23.94
2022-08-24T23:56:51.518Z,24.03
2022-08-24T23:59:22.346Z,24.10
